Time;durP1;ratioP1;P1;durP2;ratioP2;P2;SDS_P1;SDS_P2;PMS_P1;PMS_P2;Temp;Humidity;BMP_temperature;BMP_pressure;BME280_temperature;BME280_humidity;BME280_pressure;Samples;Min_cycle;Max_cycle;Signal;HPM_P1;HPM_P2
2023/08/06 00:01:10;;;;;;;2.25;1.20;;;;;;;20.31;66.72;100174.94;4977064;28;20046;-78
2023/08/06 00:03:37;;;;;;;4.95;1.30;;;;;;;20.25;67.00;100177.44;4962983;28;20208;-78
2023/08/06 00:06:11;;;;;;;2.00;1.42;;;;;;;20.21;67.69;100169.97;4983170;28;20490;-78
2023/08/06 00:08:38;;;;;;;4.35;1.58;;;;;;;20.02;67.64;100140.13;5001293;28;20612;-79
2023/08/06 00:11:08;;;;;;;3.03;1.25;;;;;;;20.21;67.54;100160.00;4960660;28;20894;-79
2023/08/06 00:13:35;;;;;;;3.60;1.27;;;;;;;20.54;67.63;100171.78;4994141;28;20057;-79
2023/08/06 00:16:10;;;;;;;4.30;0.98;;;;;;;20.71;65.56;100151.41;4982539;28;20107;-80
2023/08/06 00:18:36;;;;;;;2.88;1.20;;;;;;;21.06;64.69;100176.13;4984626;28;20041;-77
2023/08/06 00:21:03;;;;;;;0.95;0.80;;;;;;;21.16;64.81;100164.03;4974611;28;20385;-78
2023/08/06 00:23:30;;;;;;;2.67;0.90;;;;;;;21.04;63.29;100129.63;4954726;28;20498;-79
2023/08/06 00:25:56;;;;;;;1.52;1.17;;;;;;;21.21;62.88;100156.94;4941383;28;20061;-79
2023/08/06 00:28:23;;;;;;;1.45;0.60;;;;;;;20.82;62.93;100093.25;4940682;28;20553;-80
2023/08/06 00:30:57;;;;;;;1.40;0.60;;;;;;;20.99;63.31;100137.56;4915260;28;20061;-81
2023/08/06 00:33:24;;;;;;;1.10;0.80;;;;;;;20.64;63.83;100086.69;4959107;28;20100;-79
2023/08/06 00:35:51;;;;;;;1.83;1.10;;;;;;;20.83;63.65;100124.59;4952790;28;20061;-80
2023/08/06 00:38:20;;;;;;;6.07;1.23;;;;;;;20.94;63.84;100129.28;4969536;28;20546;-80
2023/08/06 00:40:47;;;;;;;3.42;1.17;;;;;;;20.97;64.06;100136.97;4969833;28;20488;-78
2023/08/06 00:43:14;;;;;;;1.88;1.00;;;;;;;20.77;64.15;100120.88;4978569;28;20042;-80
2023/08/06 00:45:41;;;;;;;5.10;1.05;;;;;;;19.98;63.90;100012.31;4972096;28;20077;-78
2023/08/06 00:48:07;;;;;;;4.60;1.25;;;;;;;20.53;64.59;100121.56;4960053;28;20045;-79
2023/08/06 00:50:34;;;;;;;1.45;0.80;;;;;;;20.40;64.32;100096.31;4966325;28;20459;-78
2023/08/06 00:53:06;;;;;;;1.75;0.80;;;;;;;20.59;64.50;100123.44;4971452;28;20135;-80
2023/08/06 00:55:41;;;;;;;1.75;0.90;;;;;;;20.47;64.34;100090.91;4973826;28;20136;-80
2023/08/06 00:58:15;;;;;;;1.92;0.82;;;;;;;20.41;64.57;100083.66;4965719;28;20341;-78
2023/08/06 01:00:42;;;;;;;2.97;0.70;;;;;;;20.53;64.17;100117.00;4978360;28;20566;-78
2023/08/06 01:03:12;;;;;;;5.28;0.85;;;;;;;20.15;64.43;100065.72;4962212;28;20076;-80
2023/08/06 01:05:40;;;;;;;4.30;0.63;;;;;;;20.39;64.98;100120.78;4956340;28;20145;-80
2023/08/06 01:08:30;;;;;;;3.88;0.93;;;;;;;19.95;64.35;100055.00;4980894;28;20068;-77
2023/08/06 01:11:07;;;;;;;1.52;0.50;;;;;;;20.24;64.88;100108.41;4976390;28;20053;-78
2023/08/06 01:13:49;;;;;;;3.15;0.70;;;;;;;20.31;65.00;100102.16;4990257;28;20048;-77
2023/08/06 01:16:18;;;;;;;1.50;0.68;;;;;;;20.42;65.27;100115.81;4984001;28;20088;-79
2023/08/06 01:18:49;;;;;;;2.20;0.70;;;;;;;20.17;64.49;100085.19;4981942;28;20053;-80
2023/08/06 01:21:16;;;;;;;2.05;0.82;;;;;;;20.24;64.92;100119.19;4954895;28;20260;-78
2023/08/06 01:23:44;;;;;;;2.50;0.75;;;;;;;20.13;65.16;100110.91;4959588;28;20281;-80
2023/08/06 01:26:22;;;;;;;4.72;1.20;;;;;;;20.08;65.29;100119.63;4969297;28;20478;-79
2023/08/06 01:28:59;;;;;;;1.52;0.73;;;;;;;19.65;65.59;100052.75;4978411;28;20139;-80
2023/08/06 01:31:40;;;;;;;1.13;0.63;;;;;;;19.95;65.77;100087.31;4973753;28;20297;-77
2023/08/06 01:34:38;;;;;;;1.85;0.60;;;;;;;20.25;65.47;100120.00;4983127;28;20459;-79
2023/08/06 01:37:05;;;;;;;4.05;0.60;;;;;;;20.28;65.03;100109.63;4975627;28;20053;-78
2023/08/06 01:39:42;;;;;;;1.25;0.70;;;;;;;20.39;64.66;100099.22;4973272;28;20046;-79
2023/08/06 01:42:12;;;;;;;2.28;0.90;;;;;;;20.38;64.31;100081.38;4977902;28;20325;-80
2023/08/06 01:44:44;;;;;;;0.70;0.50;;;;;;;20.54;64.08;100093.56;4972564;28;20479;-78
2023/08/06 01:47:13;;;;;;;1.33;0.60;;;;;;;20.61;63.35;100091.72;4949300;28;20056;-79
2023/08/06 01:49:39;;;;;;;2.50;0.40;;;;;;;20.55;64.07;100061.03;4968791;28;20054;-78
2023/08/06 01:52:06;;;;;;;3.85;0.82;;;;;;;20.88;63.18;100105.88;4956595;28;20045;-78
2023/08/06 01:54:33;;;;;;;2.17;0.88;;;;;;;20.80;63.04;100096.19;4963211;28;20054;-78
2023/08/06 01:57:00;;;;;;;5.28;1.30;;;;;;;20.57;63.03;100068.91;4961089;28;20072;-79
2023/08/06 01:59:27;;;;;;;2.58;0.70;;;;;;;20.60;63.26;100079.25;4941032;28;20466;-80
2023/08/06 02:01:57;;;;;;;2.83;1.00;;;;;;;20.19;63.23;100027.34;4957855;28;20380;-79
2023/08/06 02:04:24;;;;;;;3.17;0.82;;;;;;;20.60;63.72;100098.13;4971319;28;20277;-78
2023/08/06 02:06:52;;;;;;;2.28;0.80;;;;;;;20.55;63.82;100092.53;4958710;28;20049;-78
2023/08/06 02:09:19;;;;;;;2.35;0.50;;;;;;;20.42;63.87;100077.25;4977652;28;20072;-78
2023/08/06 02:11:46;;;;;;;3.13;0.82;;;;;;;20.58;63.98;100090.25;4970886;28;21088;-80
2023/08/06 02:14:13;;;;;;;2.45;0.60;;;;;;;20.02;63.45;99991.97;4966084;28;20076;-78
2023/08/06 02:16:39;;;;;;;2.00;0.93;;;;;;;20.52;63.54;100074.91;4985514;28;20064;-79
2023/08/06 02:19:06;;;;;;;1.90;0.80;;;;;;;20.45;63.53;100060.63;4974673;28;20519;-79
2023/08/06 02:21:33;;;;;;;3.42;1.02;;;;;;;20.60;63.81;100066.59;4951938;28;20561;-79
2023/08/06 02:24:00;;;;;;;5.32;1.08;;;;;;;20.78;63.33;100065.91;4953745;28;20137;-78
2023/08/06 02:26:27;;;;;;;2.25;0.65;;;;;;;20.80;63.08;100063.81;4947443;28;20206;-78
2023/08/06 02:28:59;;;;;;;2.72;1.10;;;;;;;20.78;63.04;100065.03;4916514;28;20053;-79
2023/08/06 02:31:35;;;;;;;2.38;1.27;;;;;;;20.52;63.41;100039.84;4948540;28;20053;-78
2023/08/06 02:34:08;;;;;;;2.95;0.70;;;;;;;20.68;63.75;100058.28;4945691;28;20414;-79
2023/08/06 02:36:36;;;;;;;5.28;0.93;;;;;;;20.76;63.01;100059.06;4958058;28;20373;-79
2023/08/06 02:39:02;;;;;;;2.50;0.82;;;;;;;20.84;63.04;100066.88;4956166;28;20728;-78
2023/08/06 02:41:33;;;;;;;4.00;0.90;;;;;;;20.77;63.32;100052.59;4946305;28;20435;-79
2023/08/06 02:44:00;;;;;;;5.82;1.10;;;;;;;20.77;63.42;100048.03;4947693;28;21019;-79
2023/08/06 02:46:27;;;;;;;7.10;0.90;;;;;;;20.85;63.55;100023.53;4916726;28;20405;-79
2023/08/06 02:48:58;;;;;;;0.95;0.70;;;;;;;20.85;63.05;100007.34;4944979;28;20068;-79
2023/08/06 02:51:28;;;;;;;1.98;1.02;;;;;;;21.02;62.82;100037.31;4940913;28;20373;-76
2023/08/06 02:53:54;;;;;;;2.38;0.80;;;;;;;20.98;62.21;100016.38;4941340;28;20054;-79
2023/08/06 02:56:22;;;;;;;1.92;0.65;;;;;;;21.13;62.26;100041.97;4957379;28;20046;-78
2023/08/06 02:58:49;;;;;;;4.53;0.70;;;;;;;20.88;62.00;100016.84;4940651;28;20674;-80
2023/08/06 03:01:16;;;;;;;3.10;1.00;;;;;;;21.00;62.42;100043.97;4961018;28;20160;-80
2023/08/06 03:03:43;;;;;;;1.08;0.90;;;;;;;20.88;62.48;100038.44;4972453;28;20470;-76
2023/08/06 03:06:10;;;;;;;0.88;0.88;;;;;;;20.86;62.23;100027.03;4971758;28;20495;-80
2023/08/06 03:08:37;;;;;;;3.10;0.82;;;;;;;21.00;62.87;100036.69;4976959;28;20041;-77
2023/08/06 03:11:03;;;;;;;0.88;0.70;;;;;;;20.92;63.77;99991.06;4982370;28;20041;-78
2023/08/06 03:13:30;;;;;;;1.75;1.02;;;;;;;21.37;61.93;100019.78;4940475;28;20433;-80
2023/08/06 03:16:00;;;;;;;1.52;0.93;;;;;;;21.00;61.59;99955.75;4972465;28;20180;-75
2023/08/06 03:18:27;;;;;;;2.05;0.80;;;;;;;21.35;60.98;99998.41;4985566;28;20197;-79
2023/08/06 03:20:54;;;;;;;4.22;1.10;;;;;;;21.25;60.42;99976.50;4972728;28;20073;-79
2023/08/06 03:23:21;;;;;;;1.10;0.80;;;;;;;21.40;59.80;100001.28;4967048;28;20516;-79
2023/08/06 03:25:50;;;;;;;1.30;0.77;;;;;;;21.63;60.52;100005.25;4942958;28;20555;-80
2023/08/06 03:28:22;;;;;;;2.78;0.80;;;;;;;21.82;60.17;100012.31;4902896;28;20062;-81
2023/08/06 03:31:03;;;;;;;2.17;1.08;;;;;;;21.81;58.31;100016.06;4946274;28;20050;-78
2023/08/06 03:33:35;;;;;;;5.18;1.02;;;;;;;21.75;57.80;99995.34;4943429;28;20046;-82
2023/08/06 03:36:07;;;;;;;2.70;0.95;;;;;;;21.79;58.19;100007.34;4965601;28;20370;-79
2023/08/06 03:38:36;;;;;;;1.77;1.00;;;;;;;21.53;58.21;99954.44;4985152;28;20050;-79
2023/08/06 03:41:03;;;;;;;1.13;1.02;;;;;;;21.76;58.17;100005.91;4997509;28;20456;-79
2023/08/06 03:43:34;;;;;;;3.22;1.10;;;;;;;21.76;58.22;100002.41;4980045;28;20066;-80
2023/08/06 03:46:08;;;;;;;1.13;0.70;;;;;;;21.68;58.99;100000.00;4942754;28;20168;-80
2023/08/06 03:48:41;;;;;;;1.73;0.85;;;;;;;21.60;58.83;99997.56;4938724;28;20096;-80
2023/08/06 03:51:19;;;;;;;1.42;0.80;;;;;;;21.60;58.61;100005.69;4979293;28;20057;-80
2023/08/06 03:53:54;;;;;;;3.55;0.85;;;;;;;21.57;58.40;99998.03;4963048;28;20132;-80
2023/08/06 03:56:24;;;;;;;2.95;0.90;;;;;;;21.51;59.14;99983.56;4975949;28;20114;-79
2023/08/06 03:58:51;;;;;;;4.68;0.88;;;;;;;21.68;59.36;100006.22;4982760;28;20038;-80
2023/08/06 04:01:17;;;;;;;1.45;0.80;;;;;;;21.09;58.56;99900.47;4968433;28;20046;-76
2023/08/06 04:03:51;;;;;;;2.50;1.00;;;;;;;21.56;59.16;99978.31;4960915;28;20101;-80
2023/08/06 04:06:22;;;;;;;2.05;1.00;;;;;;;21.64;58.53;100012.28;4972770;28;20288;-79
2023/08/06 04:08:48;;;;;;;3.47;1.02;;;;;;;21.45;58.19;99963.66;4968543;28;20128;-81
2023/08/06 04:11:17;;;;;;;2.45;1.02;;;;;;;21.68;58.05;100010.81;4979831;28;20046;-80
2023/08/06 04:13:44;;;;;;;8.05;1.02;;;;;;;21.56;58.26;99997.22;4976790;28;20546;-80
2023/08/06 04:16:10;;;;;;;1.58;1.13;;;;;;;21.67;59.18;100014.53;4977058;28;20099;-80
2023/08/06 04:18:37;;;;;;;3.22;1.15;;;;;;;21.54;58.03;99999.31;4966949;28;20423;-79
2023/08/06 04:21:04;;;;;;;2.13;1.27;;;;;;;21.72;57.84;100022.78;4962040;28;20531;-79
2023/08/06 04:23:31;;;;;;;2.10;0.95;;;;;;;21.93;57.17;100022.38;4944415;28;20077;-78
2023/08/06 04:25:58;;;;;;;1.95;0.88;;;;;;;21.86;56.59;100023.50;4940899;28;20327;-78
2023/08/06 04:28:25;;;;;;;1.13;0.85;;;;;;;21.64;57.94;99996.91;4947551;28;20572;-78
2023/08/06 04:30:54;;;;;;;3.08;1.02;;;;;;;21.83;58.46;100013.13;4947403;28;20416;-80
2023/08/06 04:33:24;;;;;;;0.77;0.75;;;;;;;21.80;58.04;99983.84;4974911;28;20554;-78
2023/08/06 04:35:55;;;;;;;4.25;1.63;;;;;;;22.01;58.02;100021.22;4966463;28;20046;-79
2023/08/06 04:38:26;;;;;;;4.35;1.02;;;;;;;21.91;56.07;99989.34;4991341;28;20508;-79
2023/08/06 04:40:53;;;;;;;2.97;1.13;;;;;;;21.91;56.79;100016.34;4936854;28;20481;-78
2023/08/06 04:43:24;;;;;;;4.47;1.20;;;;;;;21.63;57.01;99991.75;4904702;28;20214;-80
2023/08/06 04:45:54;;;;;;;2.80;1.20;;;;;;;21.83;57.62;100007.72;4955557;28;20064;-79
2023/08/06 04:48:22;;;;;;;3.17;1.10;;;;;;;21.74;57.21;100001.78;4974331;28;20447;-78
2023/08/06 04:50:50;;;;;;;2.40;1.17;;;;;;;21.76;57.48;99995.13;4968595;28;20085;-79
2023/08/06 04:53:17;;;;;;;5.28;1.20;;;;;;;21.74;57.93;99994.50;4968270;28;20430;-80
2023/08/06 04:55:43;;;;;;;4.43;1.25;;;;;;;21.48;57.67;99952.44;4962526;28;20263;-80
2023/08/06 04:58:10;;;;;;;3.15;1.10;;;;;;;21.82;57.64;100006.91;4946807;28;20052;-80
2023/08/06 05:00:37;;;;;;;1.08;0.80;;;;;;;21.57;57.83;99965.63;4950014;28;20061;-79
2023/08/06 05:03:05;;;;;;;2.25;1.33;;;;;;;21.90;57.53;100025.53;4979666;28;20069;-81
2023/08/06 05:05:35;;;;;;;2.63;1.00;;;;;;;21.95;56.59;100022.16;4981300;28;20057;-80
2023/08/06 05:08:02;;;;;;;1.70;1.13;;;;;;;21.82;56.37;100020.44;4979220;28;20709;-80
2023/08/06 05:10:29;;;;;;;8.68;1.30;;;;;;;21.65;56.92;99992.31;4984834;28;20057;-78
2023/08/06 05:12:56;;;;;;;4.00;1.17;;;;;;;21.77;57.71;100029.19;4982246;28;20061;-80
2023/08/06 05:15:25;;;;;;;3.58;1.10;;;;;;;21.73;58.07;100019.88;4965055;28;20335;-80
2023/08/06 05:17:52;;;;;;;2.63;0.90;;;;;;;21.66;58.33;99991.28;4993955;28;20046;-78
2023/08/06 05:20:22;;;;;;;2.70;1.48;;;;;;;21.55;57.87;99971.22;4966254;28;20050;-79
2023/08/06 05:22:51;;;;;;;1.65;0.90;;;;;;;21.86;58.04;100009.97;4973505;28;20141;-79
2023/08/06 05:25:17;;;;;;;1.20;1.00;;;;;;;21.97;58.60;99993.84;4973320;28;20137;-80
2023/08/06 05:27:44;;;;;;;1.38;1.10;;;;;;;22.35;57.82;100024.38;4972405;28;20672;-81
2023/08/06 05:30:11;;;;;;;3.83;1.25;;;;;;;22.39;56.48;100029.13;4976108;28;20126;-80
2023/08/06 05:32:38;;;;;;;3.65;1.20;;;;;;;22.36;56.79;100026.88;4972473;28;20054;-79
2023/08/06 05:35:06;;;;;;;1.17;1.00;;;;;;;22.38;55.96;100042.88;4977989;28;20054;-79
2023/08/06 05:37:32;;;;;;;2.08;0.90;;;;;;;22.34;57.53;100026.28;4982696;28;20065;-79
2023/08/06 05:39:59;;;;;;;6.55;1.15;;;;;;;22.39;57.06;100010.19;4974758;28;20057;-79
2023/08/06 05:42:26;;;;;;;4.82;0.82;;;;;;;22.17;56.37;99966.56;4975717;28;20056;-78
2023/08/06 05:44:53;;;;;;;2.40;1.13;;;;;;;22.66;57.10;100026.06;4978398;28;20057;-79
2023/08/06 05:47:19;;;;;;;2.38;1.00;;;;;;;22.64;56.48;100005.69;4959005;28;20042;-78
2023/08/06 05:49:46;;;;;;;7.35;2.40;;;;;;;22.69;55.86;100012.06;4971784;28;20049;-81
2023/08/06 05:52:13;;;;;;;1.05;0.77;;;;;;;22.50;55.93;99991.53;4967573;28;20194;-78
2023/08/06 05:54:45;;;;;;;2.53;1.17;;;;;;;22.56;56.83;100018.50;4962994;28;20312;-79
2023/08/06 05:57:12;;;;;;;1.40;1.00;;;;;;;22.68;56.76;100021.25;4958850;28;20379;-79
2023/08/06 05:59:40;;;;;;;4.55;1.05;;;;;;;22.79;56.61;100044.81;4969772;28;20050;-77
2023/08/06 06:02:07;;;;;;;2.22;1.05;;;;;;;22.82;56.18;100057.88;4963436;28;20866;-78
2023/08/06 06:04:34;;;;;;;4.90;1.30;;;;;;;22.81;54.83;100068.91;4965423;28;20049;-81
2023/08/06 06:07:01;;;;;;;8.38;1.23;;;;;;;22.70;55.91;100062.41;4953559;28;20162;-77
2023/08/06 06:09:27;;;;;;;5.32;1.02;;;;;;;22.69;55.88;100076.97;4973218;28;20496;-79
2023/08/06 06:12:00;;;;;;;1.75;0.75;;;;;;;22.85;52.68;100069.31;4975095;28;20148;-79
2023/08/06 06:14:29;;;;;;;2.53;1.20;;;;;;;22.72;53.73;100065.72;4977481;28;20042;-78
2023/08/06 06:16:56;;;;;;;6.00;1.27;;;;;;;22.68;53.15;100059.13;4955409;28;20058;-78
2023/08/06 06:19:29;;;;;;;1.88;1.27;;;;;;;22.78;53.61;100069.38;4955487;28;20050;-79
2023/08/06 06:22:01;;;;;;;4.20;1.20;;;;;;;22.87;53.41;100075.31;4960439;28;20050;-78
2023/08/06 06:24:27;;;;;;;2.83;1.30;;;;;;;22.81;53.24;100058.09;4954362;28;20481;-80
2023/08/06 06:26:54;;;;;;;3.50;1.20;;;;;;;22.79;53.45;100061.06;4948791;28;20520;-80
2023/08/06 06:29:21;;;;;;;2.80;1.23;;;;;;;22.91;53.45;100074.59;4950108;28;20082;-80
2023/08/06 06:31:48;;;;;;;3.90;1.00;;;;;;;22.97;54.40;100078.28;4963940;28;20137;-80
2023/08/06 06:34:15;;;;;;;2.13;1.00;;;;;;;22.90;53.33;100042.38;4974082;28;20795;-79
2023/08/06 06:36:41;;;;;;;8.23;2.30;;;;;;;23.11;53.63;100074.34;4972443;28;20391;-81
2023/08/06 06:39:10;;;;;;;2.95;1.35;;;;;;;22.96;53.64;100052.25;4971362;28;20050;-81
2023/08/06 06:41:37;;;;;;;2.25;1.33;;;;;;;23.29;52.97;100080.75;4975950;28;20404;-78
2023/08/06 06:44:11;;;;;;;1.73;1.25;;;;;;;23.28;52.91;100079.06;4943685;28;20085;-78
2023/08/06 06:46:43;;;;;;;3.67;1.52;;;;;;;23.35;53.13;100077.09;4931646;28;20145;-80
2023/08/06 06:49:09;;;;;;;3.72;1.58;;;;;;;23.44;53.30;100083.81;4940829;28;20635;-81
2023/08/06 06:51:36;;;;;;;2.80;1.42;;;;;;;23.41;53.30;100057.22;4966616;28;20165;-77
2023/08/06 06:54:05;;;;;;;9.65;1.73;;;;;;;23.51;52.61;100067.47;4983875;28;20476;-76
2023/08/06 06:56:32;;;;;;;3.50;1.40;;;;;;;23.66;52.23;100082.19;4974983;28;20054;-78
2023/08/06 06:58:59;;;;;;;1.88;1.35;;;;;;;23.68;51.01;100062.97;4965961;28;20476;-78
2023/08/06 07:01:26;;;;;;;2.80;1.20;;;;;;;23.58;51.87;100051.91;4950670;28;20472;-78
2023/08/06 07:03:53;;;;;;;4.38;1.60;;;;;;;23.76;52.32;100081.63;4950465;28;20062;-76
2023/08/06 07:06:20;;;;;;;4.43;1.67;;;;;;;23.79;52.23;100092.00;4974690;28;20062;-81
2023/08/06 07:08:51;;;;;;;9.85;1.85;;;;;;;23.76;51.71;100078.09;4959142;28;20198;-80
2023/08/06 07:11:18;;;;;;;5.40;1.65;;;;;;;23.87;49.54;100078.09;4984308;28;20052;-78
2023/08/06 07:13:45;;;;;;;2.97;1.80;;;;;;;23.81;48.89;100059.22;4977468;28;20045;-78
2023/08/06 07:16:13;;;;;;;6.43;1.30;;;;;;;23.94;49.69;100083.41;4995036;28;20052;-80
2023/08/06 07:18:39;;;;;;;2.28;1.38;;;;;;;24.04;49.19;100080.09;4985289;28;20053;-78
2023/08/06 07:21:06;;;;;;;5.13;1.52;;;;;;;24.05;49.08;100079.00;4979223;28;20241;-82
2023/08/06 07:23:33;;;;;;;5.22;1.40;;;;;;;23.96;48.81;100075.84;4978673;28;20129;-79
2023/08/06 07:26:00;;;;;;;2.05;1.55;;;;;;;24.06;49.90;100092.34;4969120;28;20050;-78
2023/08/06 07:28:27;;;;;;;3.13;1.50;;;;;;;24.06;48.97;100092.34;4983486;28;20042;-77
2023/08/06 07:30:54;;;;;;;3.03;1.23;;;;;;;23.94;48.80;100074.44;5002777;28;20068;-77
2023/08/06 07:33:21;;;;;;;2.83;1.40;;;;;;;24.00;48.77;100062.63;4991176;28;20430;-78
2023/08/06 07:35:47;;;;;;;7.45;1.90;;;;;;;23.95;48.93;100047.09;4999383;28;20523;-78
2023/08/06 07:38:14;;;;;;;2.22;1.45;;;;;;;24.18;48.62;100089.63;4992645;28;20057;-78
2023/08/06 07:40:43;;;;;;;4.35;1.42;;;;;;;23.93;49.19;100048.38;4992369;28;20447;-78
2023/08/06 07:43:10;;;;;;;5.35;1.27;;;;;;;24.07;50.04;100088.56;4976338;28;20056;-80
2023/08/06 07:45:37;;;;;;;2.00;1.40;;;;;;;24.27;49.40;100096.31;4980489;28;20054;-79
2023/08/06 07:48:04;;;;;;;7.97;1.55;;;;;;;24.31;48.02;100105.63;4978295;28;20049;-78
2023/08/06 07:50:31;;;;;;;4.82;1.58;;;;;;;24.22;48.70;100098.91;4960122;28;20046;-78
2023/08/06 07:52:59;;;;;;;2.90;1.25;;;;;;;23.92;50.33;100063.84;4978766;28;20463;-77
2023/08/06 07:55:26;;;;;;;2.20;1.40;;;;;;;24.24;50.94;100095.97;4976787;28;20057;-79
2023/08/06 07:57:54;;;;;;;3.30;1.40;;;;;;;24.31;51.01;100104.78;4975198;28;20052;-79
2023/08/06 08:00:20;;;;;;;2.97;1.45;;;;;;;24.38;50.15;100083.78;4976978;28;20049;-78
2023/08/06 08:28:09;;;;;;;3.47;1.80;;;;;;;24.73;49.90;100120.88;5427921;22;18675064;-85
2023/08/06 08:32:24;;;;;;;;;;;;;;;;;;;;;
2023/08/06 08:36:18;;;;;;;7.15;2.33;;;;;;;23.24;51.30;99892.72;6042544;23;20068;-85
2023/08/06 09:10:04;;;;;;;5.57;1.70;;;;;;;25.44;45.91;100094.22;5923863;24;20027;-75
2023/08/06 09:12:55;;;;;;;2.53;1.63;;;;;;;25.38;46.08;100079.69;6006541;23;20339;-75
2023/08/06 09:15:31;;;;;;;3.15;1.65;;;;;;;25.25;45.00;100027.63;6144545;22;20020;-77
2023/08/06 09:18:10;;;;;;;6.00;2.10;;;;;;;25.28;45.45;100041.50;6216288;22;20042;-76
2023/08/06 09:20:58;;;;;;;4.68;2.15;;;;;;;25.82;46.96;100113.53;6231822;22;20347;-76
2023/08/06 09:23:41;;;;;;;5.65;1.90;;;;;;;24.64;45.32;99921.53;6228555;22;20064;-77
2023/08/06 09:26:24;;;;;;;5.90;1.90;;;;;;;25.09;44.87;99985.75;6231513;22;20039;-77
2023/08/06 09:29:00;;;;;;;4.47;1.73;;;;;;;25.51;44.64;100053.25;6206435;23;20099;-78
2023/08/06 09:31:42;;;;;;;6.80;2.58;;;;;;;25.46;45.21;100036.88;6198596;23;20325;-76
2023/08/06 09:37:40;;;;;;;4.07;1.98;;;;;;;24.91;46.21;99922.50;6153903;23;20443;-79
2023/08/06 09:40:30;;;;;;;7.13;2.20;;;;;;;26.38;45.64;100126.03;6167159;23;20105;-74
2023/08/06 09:43:30;;;;;;;5.60;2.00;;;;;;;26.49;44.81;100137.09;6200935;22;20020;-79
2023/08/06 09:46:20;;;;;;;4.57;1.98;;;;;;;26.12;45.33;100075.94;6206855;22;20026;-79
2023/08/06 09:49:03;;;;;;;7.03;2.17;;;;;;;25.61;45.59;99982.78;6157041;23;20540;-81
2023/08/06 09:52:30;;;;;;;8.20;2.25;;;;;;;25.82;46.82;100012.94;6159286;23;20024;-76
2023/08/06 09:55:30;;;;;;;4.95;2.10;;;;;;;26.76;42.63;100120.81;6153932;23;20305;-77
2023/08/06 09:58:47;;;;;;;3.95;2.13;;;;;;;26.76;45.01;100123.53;6188625;23;20313;-75
2023/08/06 10:05:02;;;;;;;4.03;1.80;;;;;;;25.70;44.44;99913.28;6178565;23;20024;-79
2023/08/06 10:07:58;;;;;;;3.40;2.08;;;;;;;26.70;42.83;100042.88;6194466;23;20168;-79
2023/08/06 10:10:34;;;;;;;4.45;2.10;;;;;;;27.32;42.77;100110.50;6193250;23;20243;-76
2023/08/06 10:13:17;;;;;;;2.90;1.95;;;;;;;26.17;43.22;99920.94;6134900;23;20104;-78
2023/08/06 10:16:21;;;;;;;7.22;1.75;;;;;;;26.33;43.61;99930.06;6162094;23;20343;-78
2023/08/06 10:18:59;;;;;;;;;;;;;;;27.49;41.73;100100.28;6205582;23;20040;-77
2023/08/06 10:21:37;;;;;;;2.60;2.13;;;;;;;27.23;42.21;100052.94;6183177;23;19915;-78
2023/08/06 10:28:36;;;;;;;3.33;1.95;;;;;;;27.08;43.97;100017.38;6067697;23;20029;-80
2023/08/06 10:36:07;;;;;;;4.20;1.80;;;;;;;27.06;43.23;99946.81;6102012;23;20505;-78
2023/08/06 10:39:36;;;;;;;3.88;2.33;;;;;;;27.30;43.13;99992.75;6163587;23;20027;-81
2023/08/06 10:43:04;;;;;;;;;;;;;;;;;;;;;
2023/08/06 10:46:12;;;;;;;4.80;1.80;;;;;;;28.27;42.86;100093.44;6214957;22;20400;-79
2023/08/06 10:49:51;;;;;;;4.00;1.83;;;;;;;28.12;42.84;100096.91;6230297;22;20026;-79
2023/08/06 10:53:14;;;;;;;3.22;1.75;;;;;;;28.38;41.62;100094.31;6247985;22;20026;-77
2023/08/06 10:59:48;;;;;;;6.18;2.78;;;;;;;28.44;40.10;100022.25;6227704;22;20042;-83
2023/08/06 11:03:07;;;;;;;2.88;2.15;;;;;;;27.80;41.17;99920.53;6222495;22;20043;-81
2023/08/06 11:07:03;;;;;;;6.38;1.85;;;;;;;27.79;41.38;99913.41;6148028;23;20472;-76
2023/08/06 11:14:04;;;;;;;9.27;2.85;;;;;;;27.75;38.66;99854.25;6162762;23;20031;-80
2023/08/06 11:20:49;;;;;;;;;;;;;;;;;;;;;
2023/08/06 11:23:54;;;;;;;4.43;2.47;;;;;;;29.24;37.35;100009.00;6257569;22;20407;-81
2023/08/06 11:41:09;;;;;;;10.15;2.38;;;;;;;28.96;36.26;99910.09;6160436;23;20198;-76
2023/08/06 11:44:01;;;;;;;11.43;2.40;;;;;;;29.40;33.60;99963.34;6173561;23;20020;-81
2023/08/06 11:47:08;;;;;;;11.30;2.58;;;;;;;29.92;33.63;100041.44;6084604;23;20496;-77
2023/08/06 11:50:35;;;;;;;;;;;;;;;;;;;;;
2023/08/06 11:54:07;;;;;;;8.40;2.47;;;;;;;28.91;34.95;99862.81;6148521;23;20425;-77
2023/08/06 11:56:53;;;;;;;10.00;2.60;;;;;;;29.13;35.00;99873.47;6177135;23;20067;-79
2023/08/06 12:00:27;;;;;;;6.45;2.70;;;;;;;29.14;36.45;99865.00;6166305;23;20032;-79
2023/08/06 12:03:44;;;;;;;6.60;2.30;;;;;;;29.51;35.62;99904.78;6150707;23;20056;-75
2023/08/06 12:11:00;;;;;;;2.88;1.98;;;;;;;30.19;29.06;99930.75;6141826;23;20024;-78
2023/08/06 12:13:57;;;;;;;5.10;2.05;;;;;;;29.94;30.66;99869.59;6159952;23;20096;-79
2023/08/06 12:17:13;;;;;;;4.03;2.42;;;;;;;31.03;29.27;100043.09;6054410;23;20029;-76
2023/08/06 12:20:04;;;;;;;3.28;1.80;;;;;;;30.81;28.06;99973.06;6055636;23;20015;-77
2023/08/06 12:34:28;;;;;;;7.18;1.73;;;;;;;30.62;27.82;99857.88;6047218;23;20108;-76
2023/08/06 12:41:59;;;;;;;;;;;;;;;;;;;;;
2023/08/06 12:45:49;;;;;;;6.18;1.83;;;;;;;31.89;29.54;100054.34;6027039;23;20298;-78
2023/08/06 13:01:28;;;;;;;18.10;3.20;;;;;;;31.55;29.08;99937.31;6036357;23;20127;-79
2023/08/06 13:08:58;;;;;;;6.07;2.22;;;;;;;31.30;25.93;99862.41;6159370;23;20075;-78
2023/08/06 13:16:35;;;;;;;;;;;;;;;;;;;;;
2023/08/06 14:04:40;;;;;;;15.07;2.50;;;;;;;30.84;30.19;100027.31;5960126;23;20026;-79
2023/08/06 14:08:13;;;;;;;16.92;2.47;;;;;;;30.27;29.80;99982.22;5972219;23;20030;-79
2023/08/06 14:19:29;;;;;;;11.82;3.42;;;;;;;29.61;30.96;99917.59;6030337;23;20082;-78
2023/08/06 14:27:03;;;;;;;3.33;2.08;;;;;;;28.89;28.85;99879.50;6118308;23;20160;-79
2023/08/06 14:34:15;;;;;;;9.02;2.70;;;;;;;29.94;32.99;100043.91;5938988;24;20043;-79
2023/08/06 14:37:22;;;;;;;11.95;2.58;;;;;;;28.33;30.32;99850.28;5913519;24;20373;-78
2023/08/06 14:45:30;;;;;;;15.20;3.60;;;;;;;29.55;33.03;100037.13;5985832;23;20472;-79
2023/08/06 14:48:52;;;;;;;13.65;2.50;;;;;;;29.59;27.24;100030.00;5924466;24;20123;-79
2023/08/06 14:52:36;;;;;;;;;;;;;;;;;;;;;
2023/08/06 14:56:34;;;;;;;8.60;3.00;;;;;;;29.68;27.72;100029.47;5922979;24;20024;-81
2023/08/06 15:00:10;;;;;;;50.47;6.70;;;;;;;28.71;31.88;99864.47;5841613;24;20507;-77
2023/08/06 15:03:30;;;;;;;58.85;6.18;;;;;;;28.18;32.67;99822.16;5894108;23;20465;-80
2023/08/06 15:07:10;;;;;;;38.88;4.47;;;;;;;29.35;29.70;100027.03;5937375;23;20020;-82
2023/08/06 15:11:07;;;;;;;49.55;5.85;;;;;;;28.45;33.33;99881.94;5934007;23;20244;-80
2023/08/06 15:14:06;;;;;;;54.85;5.28;;;;;;;27.97;31.03;99832.25;6063999;23;20334;-80
2023/08/06 15:17:52;;;;;;;52.50;6.65;;;;;;;29.19;30.20;100018.03;6072345;23;20297;-80
2023/08/06 15:20:19;;;;;;;58.13;7.15;;;;;;;29.05;33.51;100019.63;6050373;23;20588;-81
2023/08/06 15:22:49;;;;;;;28.83;3.60;;;;;;;29.11;32.40;100037.72;6079556;23;20030;-78
2023/08/06 15:25:16;;;;;;;5.95;2.30;;;;;;;29.18;27.92;100045.66;6063098;23;20018;-80
2023/08/06 15:27:42;;;;;;;12.77;2.45;;;;;;;29.32;29.05;100032.22;6078276;23;20081;-79
2023/08/06 15:30:10;;;;;;;23.80;4.93;;;;;;;29.42;29.15;100023.19;6055769;23;20669;-80
2023/08/06 15:32:36;;;;;;;10.10;2.60;;;;;;;29.37;28.58;100024.00;6051640;23;20469;-79
2023/08/06 15:35:05;;;;;;;24.98;3.63;;;;;;;29.56;31.55;100027.00;6062883;23;20053;-81
2023/08/06 15:37:32;;;;;;;6.32;2.03;;;;;;;29.76;26.15;100042.56;6081473;23;20698;-80
2023/08/06 15:39:59;;;;;;;14.27;2.42;;;;;;;29.68;27.96;100013.06;6054827;23;20439;-80
2023/08/06 15:42:26;;;;;;;17.40;3.13;;;;;;;29.71;31.04;100034.38;6028889;23;20033;-82
2023/08/06 15:44:58;;;;;;;3.75;2.55;;;;;;;29.24;29.68;99998.06;6033601;23;20323;-81
2023/08/06 15:47:28;;;;;;;3.67;2.30;;;;;;;29.46;27.49;100022.38;6069609;23;20683;-80
2023/08/06 15:49:55;;;;;;;3.10;1.45;;;;;;;29.47;29.32;100018.56;6071022;23;20028;-80
2023/08/06 15:52:24;;;;;;;5.38;2.00;;;;;;;29.57;30.82;100034.94;6075942;23;20381;-79
2023/08/06 15:54:50;;;;;;;4.18;1.75;;;;;;;29.49;30.04;100021.84;6068281;23;20014;-80
2023/08/06 15:57:17;;;;;;;2.95;1.92;;;;;;;29.37;25.20;100018.53;6054118;23;20391;-78